Time;durP1;ratioP1;P1;durP2;ratioP2;P2;SDS_P1;SDS_P2;PMS_P1;PMS_P2;Temp;Humidity;BMP_temperature;BMP_pressure;BME280_temperature;BME280_humidity;BME280_pressure;Samples;Min_cycle;Max_cycle;Signal;HPM_P1;HPM_P2
2022/07/02 00:00:15;;;;;;;32.57;29.47;;;;;;;19.16;nan;99431.06;2092694;28;20422;-78
2022/07/02 00:01:18;;;;;;;30.23;27.43;;;;;;;19.14;nan;99422.53;2099407;28;20990;-77
2022/07/02 00:02:20;;;;;;;29.67;27.17;;;;;;;19.14;nan;99436.03;2099184;28;20420;-78
2022/07/02 00:03:25;;;;;;;30.30;27.60;;;;;;;19.17;nan;99421.81;2092422;28;20426;-78
2022/07/02 00:04:31;;;;;;;28.93;26.43;;;;;;;19.14;nan;99436.03;2091768;28;20421;-78
2022/07/02 00:05:33;;;;;;;31.10;28.37;;;;;;;19.09;nan;99424.66;2099956;28;20816;-78
2022/07/02 00:06:36;;;;;;;31.57;28.87;;;;;;;19.07;nan;99425.03;2098832;28;20866;-78
2022/07/02 00:07:37;;;;;;;31.67;28.80;;;;;;;19.09;nan;99420.03;2091376;28;20421;-78
2022/07/02 00:08:40;;;;;;;32.37;29.37;;;;;;;19.04;nan;99423.00;2092595;28;20422;-78
2022/07/02 00:09:42;;;;;;;33.50;30.40;;;;;;;19.02;nan;99422.53;2091979;28;20225;-78
2022/07/02 00:10:47;;;;;;;31.63;28.80;;;;;;;18.92;nan;99415.69;2092486;28;20475;-78
2022/07/02 00:11:51;;;;;;;33.80;30.90;;;;;;;18.90;nan;99428.00;2092551;28;20429;-78
2022/07/02 00:12:53;;;;;;;32.43;29.57;;;;;;;18.90;nan;99428.78;2092579;28;20425;-78
2022/07/02 00:13:54;;;;;;;33.33;30.30;;;;;;;18.89;nan;99413.69;2093267;28;21010;-78
2022/07/02 00:14:57;;;;;;;33.97;30.87;;;;;;;18.91;nan;99418.75;2093440;28;20900;-78
2022/07/02 00:15:59;;;;;;;33.33;30.13;;;;;;;18.87;nan;99434.09;2083991;28;20223;-78
2022/07/02 00:17:03;;;;;;;33.87;30.87;;;;;;;18.80;nan;99412.25;2083761;28;20533;-78
2022/07/02 00:18:07;;;;;;;33.63;30.53;;;;;;;18.80;nan;99431.19;2092246;28;20398;-78
2022/07/02 00:19:11;;;;;;;34.27;30.87;;;;;;;18.77;nan;99407.53;2100821;28;20436;-78
2022/07/02 00:20:14;;;;;;;35.13;31.60;;;;;;;18.73;nan;99418.25;2100986;28;20456;-78
2022/07/02 00:21:16;;;;;;;35.70;32.33;;;;;;;18.70;nan;99399.22;2091432;28;20862;-78
2022/07/02 00:22:17;;;;;;;35.37;32.17;;;;;;;18.69;nan;99403.06;2092699;28;20513;-78
2022/07/02 00:23:19;;;;;;;34.63;31.43;;;;;;;18.70;nan;99396.53;2100095;28;20440;-78
2022/07/02 00:24:22;;;;;;;34.07;30.93;;;;;;;18.67;nan;99402.59;2101406;28;20194;-78
2022/07/02 00:25:25;;;;;;;34.23;31.13;;;;;;;18.64;nan;99399.41;2093382;28;20438;-78
2022/07/02 00:26:29;;;;;;;34.07;30.93;;;;;;;18.66;nan;99411.81;2100227;28;20424;-78
2022/07/02 00:27:32;;;;;;;34.63;31.53;;;;;;;18.61;nan;99410.91;2092439;28;20433;-78
2022/07/02 00:28:38;;;;;;;35.67;32.33;;;;;;;18.57;nan;99410.00;2092758;28;20844;-78
2022/07/02 00:29:43;;;;;;;35.53;32.13;;;;;;;18.57;nan;99428.94;2101005;28;20456;-78
2022/07/02 00:30:46;;;;;;;35.80;32.57;;;;;;;18.55;nan;99427.69;2091926;28;20908;-78
2022/07/02 00:31:48;;;;;;;37.50;32.23;;;;;;;18.54;nan;99431.53;2084369;28;20450;-78
2022/07/02 00:32:53;;;;;;;36.07;32.53;;;;;;;18.53;nan;99432.66;2082882;28;20482;-78
2022/07/02 00:33:54;;;;;;;35.97;32.57;;;;;;;18.51;nan;99426.81;2083167;28;21018;-78
2022/07/02 00:34:57;;;;;;;36.17;32.63;;;;;;;18.48;nan;99432.88;2083727;28;20441;-78
2022/07/02 00:35:58;;;;;;;36.17;32.60;;;;;;;18.48;nan;99432.88;2090707;28;20461;-78
2022/07/02 00:37:00;;;;;;;35.33;32.03;;;;;;;18.50;nan;99436.81;2100337;28;20432;-78
2022/07/02 00:38:03;;;;;;;36.63;33.30;;;;;;;18.44;nan;99440.09;2099883;28;20449;-78
2022/07/02 00:39:05;;;;;;;37.87;34.00;;;;;;;18.42;nan;99439.63;2092279;28;20461;-78
2022/07/02 00:40:08;;;;;;;36.10;32.80;;;;;;;18.38;nan;99436.81;2092641;28;20433;-78
2022/07/02 00:41:09;;;;;;;35.17;32.03;;;;;;;18.33;nan;99427.06;2092864;28;20422;-78
2022/07/02 00:42:10;;;;;;;36.70;33.30;;;;;;;18.33;nan;99428.94;2091932;28;20552;-79
2022/07/02 00:43:13;;;;;;;36.37;32.67;;;;;;;18.36;nan;99431.75;2083512;28;20450;-79
2022/07/02 00:44:15;;;;;;;35.83;32.53;;;;;;;18.31;nan;99423.09;2091905;28;20429;-79
2022/07/02 00:45:19;;;;;;;35.97;32.47;;;;;;;18.28;nan;99427.25;2092364;28;20433;-79
2022/07/02 00:46:21;;;;;;;34.43;31.37;;;;;;;18.29;nan;99414.53;2091957;28;20460;-78
2022/07/02 00:47:27;;;;;;;36.23;32.43;;;;;;;18.30;nan;99416.91;2092502;28;20815;-78
2022/07/02 00:48:28;;;;;;;34.97;31.93;;;;;;;18.30;nan;99421.53;2093549;28;20444;-78
2022/07/02 00:49:31;;;;;;;35.70;32.57;;;;;;;18.28;nan;99421.88;2092497;28;20426;-79
2022/07/02 00:50:31;;;;;;;34.47;31.43;;;;;;;18.31;nan;99415.78;2092216;28;20286;-79
2022/07/02 00:51:33;;;;;;;35.30;32.20;;;;;;;18.31;nan;99415.00;2091106;28;20445;-79
2022/07/02 00:52:35;;;;;;;35.33;31.90;;;;;;;18.27;nan;99408.69;2091301;28;20189;-79
2022/07/02 00:53:37;;;;;;;39.07;34.70;;;;;;;18.22;nan;99423.19;2091820;28;20422;-78
2022/07/02 00:54:38;;;;;;;35.37;32.07;;;;;;;18.18;nan;99408.81;2091434;28;20438;-78
2022/07/02 00:55:40;;;;;;;34.93;31.57;;;;;;;18.20;nan;99411.16;2092101;28;20432;-78
2022/07/02 00:56:40;;;;;;;35.00;31.90;;;;;;;18.17;nan;99406.47;2099427;28;20677;-78
2022/07/02 00:57:42;;;;;;;36.13;32.60;;;;;;;18.15;nan;99400.59;2099335;28;20424;-78
2022/07/02 00:58:45;;;;;;;35.87;32.47;;;;;;;18.15;nan;99392.47;2099697;28;20562;-78
2022/07/02 00:59:50;;;;;;;36.20;32.80;;;;;;;18.11;nan;99395.06;2098460;28;20440;-78
2022/07/02 01:00:53;;;;;;;36.33;32.83;;;;;;;18.03;nan;99385.97;2091570;28;20489;-78
2022/07/02 01:01:55;;;;;;;35.37;32.07;;;;;;;18.00;nan;99381.25;2090910;28;20442;-78
2022/07/02 01:02:56;;;;;;;35.27;31.67;;;;;;;18.02;nan;99379.00;2099049;28;20475;-78
2022/07/02 01:03:59;;;;;;;34.40;31.20;;;;;;;18.03;nan;99372.47;2091972;28;20421;-78
2022/07/02 01:05:00;;;;;;;36.10;32.50;;;;;;;18.08;nan;99377.66;2099672;28;20445;-79
2022/07/02 01:06:02;;;;;;;37.37;33.60;;;;;;;18.06;nan;99374.47;2098591;28;20793;-78
2022/07/02 01:07:07;;;;;;;35.60;32.37;;;;;;;18.07;nan;99375.28;2091036;28;20497;-79
2022/07/02 01:10:52;;;;;;;35.97;32.20;;;;;;;18.01;nan;99372.00;2090972;28;20414;-78
2022/07/02 01:11:54;;;;;;;35.80;32.50;;;;;;;18.01;nan;99368.53;2099576;28;20445;-78
2022/07/02 01:12:56;;;;;;;37.17;33.43;;;;;;;18.00;nan;99364.25;2098774;28;20539;-78
2022/07/02 01:14:04;;;;;;;38.60;33.27;;;;;;;18.00;nan;99354.25;2091588;28;20473;-78
2022/07/02 01:15:09;;;;;;;36.20;32.50;;;;;;;18.01;nan;99349.63;2098922;28;20440;-79
2022/07/02 01:16:10;;;;;;;35.30;32.00;;;;;;;17.99;nan;99362.69;2090573;28;20456;-78
2022/07/02 01:17:12;;;;;;;35.63;32.30;;;;;;;17.99;nan;99358.06;2083763;28;20497;-78
2022/07/02 01:18:17;;;;;;;35.63;32.30;;;;;;;18.00;nan;99369.66;2090714;28;20277;-78
2022/07/02 01:19:20;;;;;;;36.13;32.27;;;;;;;18.01;nan;99373.94;2098919;28;20474;-78
2022/07/02 01:20:20;;;;;;;35.30;31.90;;;;;;;18.03;nan;99379.78;2099023;28;20425;-79
2022/07/02 01:21:24;;;;;;;35.07;31.77;;;;;;;18.03;nan;99377.84;2098548;28;20492;-78
2022/07/02 01:22:33;;;;;;;34.57;31.17;;;;;;;18.04;nan;99381.34;2098825;28;20265;-78
2022/07/02 01:23:34;;;;;;;35.27;31.87;;;;;;;18.01;nan;99387.44;2099268;28;21041;-78
2022/07/02 01:24:36;;;;;;;34.10;30.80;;;;;;;18.00;nan;99386.66;2099710;28;20794;-78
2022/07/02 01:25:38;;;;;;;35.37;31.90;;;;;;;17.99;nan;99390.47;2091484;28;20229;-78
2022/07/02 01:26:39;;;;;;;34.83;31.47;;;;;;;17.99;nan;99389.69;2098772;28;20452;-79
2022/07/02 01:27:41;;;;;;;34.47;31.27;;;;;;;18.01;nan;99392.81;2099929;28;20448;-79
2022/07/02 01:28:42;;;;;;;33.97;30.67;;;;;;;18.00;nan;99402.84;2091323;28;20425;-78
2022/07/02 01:29:44;;;;;;;36.23;32.57;;;;;;;18.04;nan;99402.94;2092068;28;20434;-78
2022/07/02 01:30:45;;;;;;;35.00;31.47;;;;;;;18.00;nan;99402.84;2100239;28;20253;-78
2022/07/02 01:31:47;;;;;;;33.43;30.33;;;;;;;18.00;nan;99408.25;2092127;28;20440;-78
2022/07/02 01:32:48;;;;;;;34.43;31.23;;;;;;;17.97;nan;99411.59;2092562;28;20656;-79
2022/07/02 01:33:50;;;;;;;33.87;30.27;;;;;;;17.92;nan;99411.84;2091970;28;20431;-78
2022/07/02 01:34:53;;;;;;;33.50;30.23;;;;;;;17.96;nan;99418.13;2092720;28;20653;-79
2022/07/02 01:35:55;;;;;;;32.80;29.80;;;;;;;17.94;nan;99425.00;2091816;28;20501;-78
2022/07/02 01:36:55;;;;;;;33.40;30.30;;;;;;;17.92;nan;99422.63;2091583;28;20831;-79
2022/07/02 01:37:58;;;;;;;34.33;30.73;;;;;;;17.89;nan;99430.59;2092191;28;20469;-78
2022/07/02 01:38:59;;;;;;;35.17;31.37;;;;;;;17.85;nan;99424.31;2098816;28;20313;-78
2022/07/02 01:40:01;;;;;;;33.77;30.60;;;;;;;17.80;nan;99425.28;2091186;28;20449;-78
2022/07/02 01:42:24;;;;;;;33.73;30.50;;;;;;;17.84;nan;99433.53;2091028;28;20493;-78
2022/07/02 01:43:25;;;;;;;34.90;31.70;;;;;;;17.86;nan;99433.97;2092399;28;20763;-78
2022/07/02 01:44:27;;;;;;;34.93;31.53;;;;;;;17.85;nan;99444.00;2091879;28;20516;-79
2022/07/02 01:45:28;;;;;;;35.47;31.90;;;;;;;17.79;nan;99434.53;2093715;28;20226;-79
2022/07/02 01:46:29;;;;;;;36.00;31.73;;;;;;;17.80;nan;99446.88;2100898;28;20986;-79
2022/07/02 01:47:31;;;;;;;36.23;32.37;;;;;;;17.77;nan;99442.97;2101623;28;20198;-79
2022/07/02 01:48:36;;;;;;;35.93;32.23;;;;;;;17.77;nan;99450.28;2092193;28;20425;-78
2022/07/02 01:49:38;;;;;;;36.70;32.83;;;;;;;17.73;nan;99442.06;2091578;28;20987;-78
2022/07/02 01:50:41;;;;;;;37.63;33.73;;;;;;;17.75;nan;99447.91;2091518;28;20753;-78
2022/07/02 01:51:42;;;;;;;38.07;33.90;;;;;;;17.75;nan;99439.03;2091528;28;20479;-78
2022/07/02 01:52:43;;;;;;;37.83;33.73;;;;;;;17.73;nan;99441.28;2091725;28;20434;-79
2022/07/02 01:53:46;;;;;;;39.03;33.97;;;;;;;17.71;nan;99440.78;2091869;28;20520;-78
2022/07/02 01:54:48;;;;;;;45.97;36.70;;;;;;;17.66;nan;99449.09;2091779;28;20282;-78
2022/07/02 01:55:49;;;;;;;40.27;35.73;;;;;;;17.62;nan;99445.47;2091745;28;20433;-78
2022/07/02 01:56:53;;;;;;;44.70;36.67;;;;;;;17.61;nan;99452.00;2091837;28;20438;-78
2022/07/02 01:57:54;;;;;;;48.60;36.43;;;;;;;17.56;nan;99453.00;2092008;28;20432;-79
2022/07/02 01:58:55;;;;;;;44.03;35.73;;;;;;;17.51;nan;99451.28;2091668;28;20537;-78
2022/07/02 01:59:57;;;;;;;46.63;37.97;;;;;;;17.53;nan;99454.44;2092031;28;20226;-78
2022/07/02 02:00:58;;;;;;;41.83;37.17;;;;;;;17.49;nan;99450.84;2099985;28;20502;-78
2022/07/02 02:01:59;;;;;;;48.97;39.20;;;;;;;17.49;nan;99444.66;2100146;28;20500;-78
2022/07/02 02:03:03;;;;;;;50.50;38.70;;;;;;;17.48;nan;99446.56;2100435;28;20198;-79
2022/07/02 02:04:05;;;;;;;44.93;38.47;;;;;;;17.51;nan;99455.91;2091410;28;20434;-79
2022/07/02 02:05:07;;;;;;;45.20;37.97;;;;;;;17.52;nan;99458.25;2090969;28;20430;-78
2022/07/02 02:06:08;;;;;;;43.40;37.60;;;;;;;17.48;nan;99448.47;2090661;28;20437;-78
2022/07/02 02:07:09;;;;;;;44.73;39.20;;;;;;;17.44;nan;99448.34;2091963;28;20454;-78
2022/07/02 02:08:11;;;;;;;47.67;38.93;;;;;;;17.47;nan;99453.09;2092318;28;20416;-78
2022/07/02 02:09:14;;;;;;;45.73;38.33;;;;;;;17.48;nan;99448.47;2091560;28;20238;-78
2022/07/02 02:10:16;;;;;;;45.00;38.10;;;;;;;17.43;nan;99449.47;2090871;28;20434;-78
2022/07/02 02:11:17;;;;;;;42.50;37.53;;;;;;;17.47;nan;99447.69;2090900;28;20827;-78
2022/07/02 02:12:18;;;;;;;50.30;38.63;;;;;;;17.48;nan;99451.19;2091913;28;20501;-78
2022/07/02 02:13:20;;;;;;;44.10;38.10;;;;;;;17.46;nan;99453.38;2090904;28;20187;-78
2022/07/02 02:14:21;;;;;;;44.47;38.90;;;;;;;17.43;nan;99452.16;2091400;28;20572;-78
2022/07/02 02:15:23;;;;;;;45.53;38.60;;;;;;;17.45;nan;99455.31;2090990;28;20425;-78
2022/07/02 02:16:25;;;;;;;43.20;36.50;;;;;;;17.49;nan;99455.44;2090719;28;20214;-78
2022/07/02 02:17:27;;;;;;;48.70;39.07;;;;;;;17.49;nan;99464.31;2099006;28;20465;-78
2022/07/02 02:18:28;;;;;;;44.77;37.83;;;;;;;17.49;nan;99463.53;2098399;28;20818;-78
2022/07/02 02:19:29;;;;;;;44.73;37.93;;;;;;;17.50;nan;99474.00;2090777;28;20524;-78
2022/07/02 02:20:30;;;;;;;45.07;38.70;;;;;;;17.49;nan;99474.34;2098435;28;20182;-78
2022/07/02 02:21:32;;;;;;;44.07;39.30;;;;;;;17.48;nan;99484.34;2090066;28;20469;-78
2022/07/02 02:22:32;;;;;;;43.63;38.40;;;;;;;17.49;nan;99480.50;2090750;28;20198;-78
2022/07/02 02:23:35;;;;;;;46.20;39.70;;;;;;;17.45;nan;99476.88;2090852;28;20528;-78
2022/07/02 02:24:39;;;;;;;45.03;38.30;;;;;;;17.43;nan;99465.66;2091000;28;20213;-78
2022/07/02 02:25:40;;;;;;;41.77;36.77;;;;;;;17.45;nan;99484.97;2091455;28;20441;-78
2022/07/02 02:26:41;;;;;;;45.90;36.77;;;;;;;17.44;nan;99488.78;2090182;28;20449;-78
2022/07/02 02:27:42;;;;;;;44.50;38.00;;;;;;;17.39;nan;99475.53;2090918;28;20708;-78
2022/07/02 02:28:44;;;;;;;44.63;37.03;;;;;;;17.40;nan;99476.31;2090107;28;20862;-78
2022/07/02 02:29:48;;;;;;;41.83;37.30;;;;;;;17.38;nan;99473.97;2090344;28;20257;-78
2022/07/02 02:30:49;;;;;;;42.13;37.63;;;;;;;17.34;nan;99478.41;2099012;28;20448;-78
2022/07/02 02:31:50;;;;;;;49.60;36.50;;;;;;;17.40;nan;99479.00;2090531;28;20433;-78
2022/07/02 02:32:51;;;;;;;43.13;38.27;;;;;;;17.40;nan;99482.50;2090830;28;20191;-78
2022/07/02 02:33:53;;;;;;;45.67;37.30;;;;;;;17.37;nan;99485.84;2090146;28;20459;-78
2022/07/02 02:34:53;;;;;;;41.63;37.23;;;;;;;17.33;nan;99487.63;2081764;28;20261;-78
2022/07/02 02:35:58;;;;;;;42.97;37.47;;;;;;;17.32;nan;99494.16;2090820;28;20928;-78
2022/07/02 02:36:59;;;;;;;40.03;35.77;;;;;;;17.32;nan;99490.66;2091544;28;20171;-78
2022/07/02 02:38:00;;;;;;;40.17;35.80;;;;;;;17.32;nan;99485.28;2099108;28;20479;-78
2022/07/02 02:39:02;;;;;;;39.43;35.23;;;;;;;17.33;nan;99486.84;2098761;28;20358;-78
2022/07/02 02:40:06;;;;;;;39.47;35.37;;;;;;;17.35;nan;99487.28;2098663;28;21017;-78
2022/07/02 02:41:09;;;;;;;41.17;35.63;;;;;;;17.36;nan;99492.34;2099121;28;20461;-78
2022/07/02 02:42:11;;;;;;;43.23;36.93;;;;;;;17.35;nan;99490.00;2098611;28;20448;-78
2022/07/02 02:43:14;;;;;;;38.67;34.43;;;;;;;17.35;nan;99492.69;2098684;28;20431;-78
2022/07/02 02:44:15;;;;;;;39.50;35.43;;;;;;;17.35;nan;99496.19;2099746;28;20444;-78
2022/07/02 02:45:17;;;;;;;39.23;34.60;;;;;;;17.36;nan;99500.44;2098354;28;20455;-78
2022/07/02 02:46:17;;;;;;;44.33;36.00;;;;;;;17.38;nan;99506.31;2100089;28;20225;-78
2022/07/02 02:47:21;;;;;;;43.60;36.77;;;;;;;17.39;nan;99510.59;2091308;28;20558;-78
2022/07/02 02:48:22;;;;;;;39.87;35.77;;;;;;;17.38;nan;99508.22;2091157;28;20260;-78
2022/07/02 02:49:25;;;;;;;42.90;36.00;;;;;;;17.34;nan;99502.69;2099807;28;20483;-78
2022/07/02 02:50:26;;;;;;;39.60;35.10;;;;;;;17.34;nan;99510.78;2098781;28;20289;-78
2022/07/02 02:51:28;;;;;;;43.27;37.30;;;;;;;17.32;nan;99513.03;2098864;28;20447;-78
2022/07/02 02:52:28;;;;;;;46.63;35.83;;;;;;;17.34;nan;99515.38;2090617;28;20437;-78
2022/07/02 02:53:30;;;;;;;48.33;37.63;;;;;;;17.31;nan;99516.06;2090726;28;20525;-78
2022/07/02 02:54:30;;;;;;;42.23;37.13;;;;;;;17.33;nan;99509.22;2098832;28;20218;-78
2022/07/02 02:55:33;;;;;;;47.17;36.80;;;;;;;17.31;nan;99510.66;2098251;28;20429;-78
2022/07/02 02:56:34;;;;;;;41.83;37.23;;;;;;;17.26;nan;99503.56;2098588;28;20214;-78
2022/07/02 02:57:38;;;;;;;40.37;35.80;;;;;;;17.28;nan;99506.69;2090018;28;20469;-78
2022/07/02 02:58:40;;;;;;;44.63;37.40;;;;;;;17.31;nan;99499.88;2090067;28;20433;-78
2022/07/02 02:59:41;;;;;;;44.03;38.83;;;;;;;17.32;nan;99496.84;2098906;28;20487;-78
2022/07/02 03:00:43;;;;;;;46.50;37.17;;;;;;;17.32;nan;99507.63;2089974;28;20445;-78
2022/07/02 03:01:43;;;;;;;42.77;37.30;;;;;;;17.32;nan;99514.94;2090509;28;20203;-78
2022/07/02 03:02:45;;;;;;;46.27;39.03;;;;;;;17.32;nan;99512.25;2098114;28;20428;-78
2022/07/02 03:03:46;;;;;;;46.80;38.30;;;;;;;17.32;nan;99518.41;2090369;28;20564;-78
2022/07/02 03:04:47;;;;;;;44.87;36.90;;;;;;;17.32;nan;99515.72;2098774;28;20458;-78
2022/07/02 03:05:48;;;;;;;43.33;37.00;;;;;;;17.32;nan;99518.41;2097986;28;20672;-78
2022/07/02 03:06:50;;;;;;;44.03;38.07;;;;;;;17.30;nan;99515.28;2089819;28;20827;-78
2022/07/02 03:07:50;;;;;;;46.90;38.93;;;;;;;17.30;nan;99526.06;2090523;28;20182;-78
2022/07/02 03:08:52;;;;;;;47.93;39.73;;;;;;;17.30;nan;99525.28;2090592;28;20449;-78
2022/07/02 03:09:54;;;;;;;54.40;40.63;;;;;;;17.29;nan;99521.78;2091278;28;20281;-78
2022/07/02 03:10:59;;;;;;;48.67;39.03;;;;;;;17.27;nan;99529.41;2089919;28;20434;-78
2022/07/02 03:12:00;;;;;;;47.27;39.70;;;;;;;17.29;nan;99529.88;2090153;28;20516;-78
2022/07/02 03:13:02;;;;;;;49.17;39.70;;;;;;;17.26;nan;99522.44;2090595;28;20441;-78
2022/07/02 03:14:02;;;;;;;45.47;39.57;;;;;;;17.28;nan;99520.19;2082109;28;20226;-78
2022/07/02 03:15:05;;;;;;;49.83;41.10;;;;;;;17.27;nan;99521.31;2091713;28;20979;-78
2022/07/02 03:16:07;;;;;;;46.70;39.53;;;;;;;17.28;nan;99514.00;2091133;28;20558;-78
2022/07/02 03:17:09;;;;;;;48.57;40.27;;;;;;;17.35;nan;99516.97;2099128;28;20447;-78
2022/07/02 03:18:12;;;;;;;47.20;39.47;;;;;;;17.32;nan;99513.03;2089744;28;20433;-78
2022/07/02 03:19:13;;;;;;;49.13;41.63;;;;;;;17.33;nan;99514.59;2089827;28;20532;-79
2022/07/02 03:20:14;;;;;;;48.17;41.20;;;;;;;17.31;nan;99522.25;2090679;28;20438;-78
2022/07/02 03:21:16;;;;;;;44.93;38.80;;;;;;;17.32;nan;99518.41;2098669;28;20452;-78
2022/07/02 03:22:16;;;;;;;45.93;38.47;;;;;;;17.33;nan;99513.81;2099917;28;20277;-78
2022/07/02 03:23:18;;;;;;;55.67;41.13;;;;;;;17.30;nan;99509.88;2092725;28;20923;-78
2022/07/02 03:24:19;;;;;;;49.77;40.73;;;;;;;17.26;nan;99511.63;2091014;28;20552;-78
2022/07/02 03:25:23;;;;;;;48.23;40.53;;;;;;;17.29;nan;99519.09;2091884;28;20457;-78
2022/07/02 03:26:30;;;;;;;47.47;40.80;;;;;;;17.31;nan;99510.66;2091611;28;20467;-78
2022/07/02 03:27:30;;;;;;;46.83;40.43;;;;;;;17.28;nan;99516.69;2089971;28;20446;-78
2022/07/02 03:28:32;;;;;;;45.80;39.30;;;;;;;17.24;nan;99516.56;2090307;28;20512;-78
2022/07/02 03:29:33;;;;;;;50.20;40.73;;;;;;;17.21;nan;99530.72;2098925;28;20194;-78
2022/07/02 03:30:37;;;;;;;46.13;40.73;;;;;;;17.18;nan;99525.97;2098484;28;20468;-78
2022/07/02 03:31:39;;;;;;;46.37;39.23;;;;;;;17.14;nan;99527.75;2091149;28;20665;-78
2022/07/02 03:32:41;;;;;;;53.47;40.80;;;;;;;17.10;nan;99529.50;2093829;28;20433;-78
2022/07/02 03:33:42;;;;;;;49.73;39.13;;;;;;;17.10;nan;99534.91;2083839;28;20470;-78
2022/07/02 03:34:43;;;;;;;50.33;41.10;;;;;;;17.05;nan;99533.22;2091801;28;20468;-78
2022/07/02 03:35:44;;;;;;;47.40;40.37;;;;;;;17.04;nan;99536.25;2093147;28;20223;-78
2022/07/02 03:36:45;;;;;;;47.03;41.77;;;;;;;17.04;nan;99526.25;2092005;28;20457;-78
2022/07/02 03:37:48;;;;;;;45.13;40.27;;;;;;;17.09;nan;99538.72;2100138;28;20337;-78
2022/07/02 03:38:52;;;;;;;45.97;38.93;;;;;;;17.06;nan;99536.69;2100602;28;20456;-78
2022/07/02 03:39:53;;;;;;;46.90;39.47;;;;;;;17.07;nan;99543.66;2099834;28;20445;-78
2022/07/02 03:40:54;;;;;;;43.67;38.93;;;;;;;17.12;nan;99546.97;2100505;28;20425;-78
2022/07/02 03:41:56;;;;;;;43.17;37.77;;;;;;;17.12;nan;99552.34;2092033;28;20222;-78
2022/07/02 03:42:58;;;;;;;42.67;38.00;;;;;;;17.12;nan;99555.06;2091751;28;20421;-78
2022/07/02 03:43:59;;;;;;;41.13;36.40;;;;;;;17.15;nan;99553.59;2092967;28;20509;-78
2022/07/02 03:45:03;;;;;;;41.57;37.07;;;;;;;17.13;nan;99556.63;2092354;28;20429;-78
2022/07/02 03:46:05;;;;;;;46.20;37.80;;;;;;;17.14;nan;99554.72;2092174;28;20441;-78
2022/07/02 03:47:07;;;;;;;42.80;35.80;;;;;;;17.15;nan;99557.09;2092124;28;20452;-78
2022/07/02 03:48:09;;;;;;;41.23;36.87;;;;;;;17.14;nan;99557.41;2083217;28;20545;-78
2022/07/02 03:49:09;;;;;;;42.63;36.97;;;;;;;17.12;nan;99560.44;2084211;28;20441;-78
2022/07/02 03:50:11;;;;;;;42.43;38.13;;;;;;;17.09;nan;99563.78;2091407;28;20477;-78
2022/07/02 03:51:12;;;;;;;42.37;38.00;;;;;;;17.07;nan;99567.94;2090743;28;20281;-78
2022/07/02 03:52:15;;;;;;;41.00;36.80;;;;;;;17.05;nan;99568.25;2092021;28;20768;-78
2022/07/02 03:53:16;;;;;;;42.97;38.40;;;;;;;17.04;nan;99571.28;2100041;28;20448;-78
2022/07/02 03:54:18;;;;;;;42.70;38.17;;;;;;;17.05;nan;99572.88;2100860;28;20412;-78
2022/07/02 03:55:18;;;;;;;42.43;38.03;;;;;;;17.05;nan;99576.34;2091545;28;20709;-78
2022/07/02 03:56:20;;;;;;;41.20;36.70;;;;;;;17.05;nan;99575.56;2082614;28;20538;-78
2022/07/02 03:57:22;;;;;;;41.90;37.60;;;;;;;17.09;nan;99589.94;2092561;28;20198;-79
2022/07/02 03:58:26;;;;;;;39.57;35.53;;;;;;;17.08;nan;99583.78;2091345;28;20491;-78
2022/07/02 03:59:28;;;;;;;38.30;34.43;;;;;;;17.08;nan;99593.75;2100414;28;20543;-78
2022/07/02 04:00:30;;;;;;;39.97;35.60;;;;;;;17.06;nan;99596.00;2091460;28;20440;-78
2022/07/02 04:01:31;;;;;;;39.23;35.17;;;;;;;17.07;nan;99584.09;2091698;28;20960;-78
2022/07/02 04:02:33;;;;;;;38.87;35.00;;;;;;;17.07;nan;99589.50;2100126;28;20830;-78
2022/07/02 04:03:33;;;;;;;37.57;33.70;;;;;;;17.08;nan;99582.97;2091561;28;20712;-78
2022/07/02 04:04:36;;;;;;;38.77;34.80;;;;;;;17.03;nan;99581.28;2083392;28;20841;-78
2022/07/02 04:05:37;;;;;;;37.50;33.90;;;;;;;17.05;nan;99586.34;2091426;28;20650;-78
2022/07/02 04:06:39;;;;;;;37.30;33.63;;;;;;;17.04;nan;99595.56;2091011;28;20531;-78
2022/07/02 04:07:40;;;;;;;34.90;31.47;;;;;;;17.01;nan;99591.56;2091965;28;20217;-78
2022/07/02 04:08:41;;;;;;;34.70;31.50;;;;;;;17.05;nan;99583.66;2092143;28;20920;-78
2022/07/02 04:09:42;;;;;;;35.13;31.70;;;;;;;17.00;nan;99591.91;2099562;28;20202;-78
2022/07/02 04:10:44;;;;;;;35.83;32.23;;;;;;;16.97;nan;99596.06;2100224;28;20914;-78
2022/07/02 04:11:45;;;;;;;36.60;33.13;;;;;;;16.98;nan;99599.53;2091224;28;20221;-78
2022/07/02 04:12:50;;;;;;;34.63;31.07;;;;;;;16.99;nan;99606.50;2092628;28;20425;-78
2022/07/02 04:13:51;;;;;;;34.27;30.63;;;;;;;16.95;nan;99606.38;2099947;28;20187;-78
2022/07/02 04:14:52;;;;;;;32.87;29.83;;;;;;;16.95;nan;99612.56;2100117;28;20472;-78
2022/07/02 04:15:53;;;;;;;33.67;30.57;;;;;;;16.92;nan;99613.19;2100723;28;20266;-78
2022/07/02 04:16:55;;;;;;;32.80;29.80;;;;;;;16.91;nan;99606.22;2099660;28;20441;-78
2022/07/02 04:17:55;;;;;;;32.30;29.10;;;;;;;16.93;nan;99619.38;2092673;28;20760;-79
2022/07/02 04:18:57;;;;;;;31.80;28.77;;;;;;;16.91;nan;99611.59;2100748;28;20848;-78
2022/07/02 04:20:02;;;;;;;32.97;29.10;;;;;;;16.90;nan;99599.25;2092454;28;20702;-79
2022/07/02 04:21:04;;;;;;;33.00;29.90;;;;;;;16.91;nan;99610.81;2092903;28;20437;-78
2022/07/02 04:22:04;;;;;;;33.27;30.13;;;;;;;16.91;nan;99600.81;2100775;28;20539;-78
2022/07/02 04:23:07;;;;;;;32.30;29.17;;;;;;;16.93;nan;99612.06;2092868;28;20448;-78
2022/07/02 04:24:07;;;;;;;33.07;29.53;;;;;;;16.95;nan;99607.16;2092803;28;20183;-78
2022/07/02 04:25:12;;;;;;;31.67;28.57;;;;;;;16.99;nan;99609.19;2092473;28;20968;-78
2022/07/02 04:26:15;;;;;;;30.97;28.00;;;;;;;16.97;nan;99598.75;2091643;28;20195;-78
2022/07/02 04:27:18;;;;;;;29.90;27.30;;;;;;;17.05;nan;99610.59;2091939;28;20422;-79
2022/07/02 04:28:20;;;;;;;30.47;27.67;;;;;;;17.02;nan;99603.94;2100440;28;20923;-78
2022/07/02 04:29:21;;;;;;;30.73;27.83;;;;;;;17.00;nan;99608.88;2099892;28;20790;-78
2022/07/02 04:30:22;;;;;;;30.73;27.83;;;;;;;16.97;nan;99614.13;2099732;28;20829;-78
2022/07/02 04:31:24;;;;;;;29.80;27.30;;;;;;;17.01;nan;99612.34;2091744;28;20430;-79
2022/07/02 04:32:24;;;;;;;31.37;28.10;;;;;;;16.97;nan;99609.53;2092028;28;20230;-79
2022/07/02 04:33:26;;;;;;;30.00;27.47;;;;;;;16.99;nan;99604.59;2091584;28;20433;-79
2022/07/02 04:34:27;;;;;;;30.67;28.07;;;;;;;17.01;nan;99604.28;2092654;28;20422;-79
2022/07/02 04:35:30;;;;;;;29.77;27.00;;;;;;;16.98;nan;99611.09;2092439;28;20473;-79
2022/07/02 04:36:30;;;;;;;31.17;28.37;;;;;;;16.93;nan;99603.97;2092393;28;20230;-79
2022/07/02 04:37:32;;;;;;;31.07;27.93;;;;;;;16.95;nan;99607.16;2099318;28;20927;-78
2022/07/02 04:38:32;;;;;;;30.80;28.10;;;;;;;16.95;nan;99603.69;2090634;28;20234;-77
2022/07/02 04:39:35;;;;;;;30.30;27.23;;;;;;;16.94;nan;99613.69;2083199;28;20441;-78
2022/07/02 04:40:36;;;;;;;30.83;27.87;;;;;;;16.88;nan;99620.34;2082774;28;20215;-78
2022/07/02 04:41:38;;;;;;;32.07;28.93;;;;;;;16.87;nan;99605.28;2083168;28;20461;-78
2022/07/02 04:42:39;;;;;;;32.50;29.20;;;;;;;16.84;nan;99614.00;2082875;28;20663;-78
2022/07/02 04:43:42;;;;;;;33.70;30.60;;;;;;;16.83;nan;99614.34;2082539;28;20787;-78
2022/07/02 04:44:42;;;;;;;33.00;30.10;;;;;;;16.78;nan;99615.31;2091260;28;20233;-78
2022/07/02 04:45:44;;;;;;;35.10;31.90;;;;;;;16.73;nan;99615.50;2091642;28;20430;-78
2022/07/02 04:46:45;;;;;;;35.07;31.80;;;;;;;16.66;nan;99620.56;2099651;28;20194;-78
2022/07/02 04:47:46;;;;;;;34.90;31.43;;;;;;;16.65;nan;99621.66;2099066;28;20527;-78
2022/07/02 04:48:47;;;;;;;36.43;32.93;;;;;;;16.60;nan;99617.25;2090733;28;20230;-78
2022/07/02 04:49:49;;;;;;;36.60;33.17;;;;;;;16.57;nan;99617.88;2091056;28;20445;-78
2022/07/02 04:50:49;;;;;;;37.77;34.23;;;;;;;16.48;nan;99617.13;2090782;28;20315;-78
2022/07/02 04:51:51;;;;;;;38.13;34.53;;;;;;;16.49;nan;99616.00;2098963;28;20558;-78
2022/07/02 04:52:53;;;;;;;37.93;33.97;;;;;;;16.48;nan;99613.63;2091610;28;20198;-78
2022/07/02 04:53:55;;;;;;;38.60;34.60;;;;;;;16.49;nan;99617.91;2099356;28;20447;-78
2022/07/02 04:54:56;;;;;;;39.17;35.23;;;;;;;16.49;nan;99628.69;2099575;28;20425;-78
2022/07/02 04:55:58;;;;;;;40.10;36.20;;;;;;;16.50;nan;99624.88;2091422;28;20449;-78